createdAt,value
2019-03-20T00:01:48.613Z,8.23
2019-03-20T00:06:53.097Z,10.60
2019-03-20T00:11:58.550Z,8.07
2019-03-20T00:17:04.422Z,8.87
2019-03-20T00:22:11.119Z,12.45
2019-03-20T00:27:17.370Z,8.80
2019-03-20T00:32:22.321Z,10.30
2019-03-20T00:37:26.708Z,12.10
2019-03-20T00:42:31.766Z,9.43
2019-03-20T00:47:37.074Z,10.40
2019-03-20T00:52:42.189Z,11.70
2019-03-20T00:57:47.741Z,8.37
2019-03-20T01:02:53.450Z,10.27
2019-03-20T01:07:58.281Z,8.50
2019-03-20T01:13:03.789Z,12.07
2019-03-20T01:18:11.310Z,10.80
2019-03-20T01:23:18.704Z,20.33
2019-03-20T01:28:23.581Z,14.15
2019-03-20T01:33:28.598Z,9.18
2019-03-20T01:38:36.546Z,14.13
2019-03-20T01:43:41.019Z,10.93
2019-03-20T01:48:45.347Z,14.40
2019-03-20T01:53:50.126Z,12.07
2019-03-20T01:58:55.401Z,12.65
2019-03-20T02:04:00.777Z,11.53
2019-03-20T02:09:09.888Z,10.27
2019-03-20T02:14:14.211Z,12.03
2019-03-20T02:19:19.039Z,8.67
2019-03-20T02:24:23.599Z,15.33
2019-03-20T02:29:29.611Z,13.03
2019-03-20T02:34:34.013Z,9.27
2019-03-20T02:39:39.170Z,10.90
2019-03-20T02:44:43.688Z,11.07
2019-03-20T02:49:48.586Z,11.40
2019-03-20T02:54:54.513Z,12.77
2019-03-20T02:59:59.592Z,8.57
2019-03-20T03:05:04.649Z,9.47
2019-03-20T03:10:10.175Z,8.90
2019-03-20T03:15:15.227Z,10.50
2019-03-20T03:20:19.636Z,10.73
2019-03-20T03:25:24.757Z,7.73
2019-03-20T03:30:29.789Z,9.07
2019-03-20T03:35:34.428Z,11.07
2019-03-20T03:40:38.893Z,8.90
2019-03-20T03:45:43.538Z,12.67
2019-03-20T03:50:51.083Z,11.35
2019-03-20T03:55:55.524Z,11.57
2019-03-20T04:01:00.124Z,16.93
2019-03-20T04:06:05.251Z,9.67
2019-03-20T04:11:09.616Z,8.10
2019-03-20T04:16:14.204Z,13.87
2019-03-20T04:21:18.736Z,11.77
2019-03-20T04:26:23.908Z,10.80
2019-03-20T04:31:28.400Z,14.63
2019-03-20T04:36:33.414Z,8.53
2019-03-20T04:41:38.219Z,12.70
2019-03-20T04:46:43.333Z,12.87
2019-03-20T04:51:48.972Z,12.07
2019-03-20T04:56:56.067Z,11.93
2019-03-20T05:02:01.570Z,14.40
2019-03-20T05:07:06.324Z,12.67
2019-03-20T05:12:11.264Z,14.60
2019-03-20T05:17:16.781Z,10.00
2019-03-20T05:22:24.481Z,9.47
2019-03-20T05:27:32.301Z,11.80
2019-03-20T05:32:37.077Z,8.13
2019-03-20T05:37:43.141Z,11.87
2019-03-20T05:42:48.694Z,10.67
2019-03-20T05:47:54.826Z,9.90
2019-03-20T05:52:59.530Z,9.17
2019-03-20T05:58:05.474Z,15.53
2019-03-20T06:03:10.790Z,11.97
2019-03-20T06:08:16.940Z,11.63
2019-03-20T06:13:22.099Z,14.20
2019-03-20T06:18:27.628Z,17.37
2019-03-20T06:23:34.705Z,12.23
2019-03-20T06:28:39.168Z,15.97
2019-03-20T06:33:44.237Z,16.70
2019-03-20T06:38:50.067Z,9.77
2019-03-20T06:43:54.845Z,8.47
2019-03-20T06:48:59.341Z,8.43
2019-03-20T06:54:04.338Z,5.70
2019-03-20T06:59:50.008Z,11.97
2019-03-20T07:05:34.319Z,5.93
2019-03-20T07:11:16.303Z,7.45
2019-03-20T07:16:21.591Z,7.83
2019-03-20T07:21:26.489Z,7.67
2019-03-20T07:26:31.863Z,7.20
2019-03-20T07:31:36.765Z,9.88
2019-03-20T07:36:41.952Z,10.38
2019-03-20T07:41:48.647Z,8.78
2019-03-20T07:46:54.474Z,6.42
2019-03-20T07:52:00.970Z,7.25
2019-03-20T07:57:05.846Z,6.33
2019-03-20T08:02:10.291Z,9.65
2019-03-20T08:07:14.991Z,9.10
2019-03-20T08:12:20.249Z,8.85
2019-03-20T08:17:25.139Z,7.72
2019-03-20T08:22:29.919Z,7.53
2019-03-20T08:27:34.933Z,8.38
2019-03-20T08:32:40.013Z,5.87
2019-03-20T08:37:44.571Z,5.85
2019-03-20T08:48:11.414Z,13.20
2019-03-20T08:53:16.273Z,7.67
2019-03-20T08:58:20.929Z,7.12
2019-03-20T09:03:25.728Z,9.54
2019-03-20T09:08:30.163Z,12.30
2019-03-20T09:13:34.962Z,7.17
2019-03-20T09:18:40.561Z,10.70
2019-03-20T09:23:49.817Z,8.55
2019-03-20T09:28:55.161Z,9.40
2019-03-20T09:34:00.568Z,5.90
2019-03-20T09:39:07.637Z,7.97
2019-03-20T09:44:12.728Z,8.55
2019-03-20T09:49:18.099Z,15.15
2019-03-20T09:54:22.453Z,6.37
2019-03-20T09:59:27.393Z,5.12
2019-03-20T10:04:32.035Z,10.60
2019-03-20T10:09:36.518Z,7.28
2019-03-20T10:14:41.134Z,6.60
2019-03-20T10:19:45.783Z,7.53
2019-03-20T10:24:50.822Z,5.37
2019-03-20T10:29:55.371Z,7.80
2019-03-20T10:35:00.347Z,13.27
2019-03-20T10:40:06.232Z,12.10
2019-03-20T10:45:13.292Z,9.67
2019-03-20T10:50:21.385Z,10.60
2019-03-20T10:55:25.567Z,6.63
2019-03-20T11:00:30.528Z,8.10
2019-03-20T11:05:38.272Z,6.27
2019-03-20T11:10:44.314Z,5.40
2019-03-20T11:15:49.074Z,6.57
2019-03-20T11:20:54.814Z,7.70
2019-03-20T11:26:00.210Z,4.73
2019-03-20T11:31:06.176Z,11.37
2019-03-20T11:36:11.977Z,12.23
2019-03-20T11:41:17.135Z,6.63
2019-03-20T11:46:22.872Z,10.40
2019-03-20T11:51:28.922Z,10.63
2019-03-20T11:56:36.614Z,7.27
2019-03-20T12:01:41.134Z,9.03
2019-03-20T12:06:45.941Z,7.20
2019-03-20T12:11:56.674Z,11.27
2019-03-20T12:17:02.504Z,7.43
2019-03-20T12:22:10.470Z,6.33
2019-03-20T12:27:20.226Z,5.43
2019-03-20T12:32:26.409Z,5.87
2019-03-20T12:37:32.552Z,8.30
2019-03-20T12:42:37.699Z,6.37
2019-03-20T12:47:44.264Z,8.70
2019-03-20T12:52:49.274Z,6.13
2019-03-20T12:57:56.213Z,3.70
2019-03-20T13:03:01.264Z,7.60
2019-03-20T13:08:06.999Z,8.73
2019-03-20T13:13:16.165Z,7.57
2019-03-20T13:18:21.211Z,7.50
2019-03-20T13:23:32.293Z,3.83
2019-03-20T13:28:40.942Z,6.53
2019-03-20T13:33:45.606Z,7.17
2019-03-20T13:38:50.536Z,4.47
2019-03-20T13:43:58.541Z,6.97
2019-03-20T13:49:10.372Z,7.10
2019-03-20T13:54:15.005Z,8.50
2019-03-20T13:59:20.133Z,6.20
2019-03-20T14:04:25.148Z,13.10
2019-03-20T14:09:33.275Z,9.80
2019-03-20T14:14:38.352Z,10.87
2019-03-20T14:19:53.091Z,13.20
2019-03-20T14:25:04.113Z,13.03
2019-03-20T14:30:12.953Z,5.43
2019-03-20T14:35:21.723Z,6.90
2019-03-20T14:40:35.494Z,5.13
2019-03-20T14:45:37.656Z,9.13
2019-03-20T14:50:42.821Z,13.43
2019-03-20T14:55:48.622Z,10.03
2019-03-20T15:00:53.618Z,10.77
2019-03-20T15:05:58.719Z,4.97
2019-03-20T15:11:05.366Z,9.40
2019-03-20T15:16:12.344Z,10.50
2019-03-20T15:21:17.052Z,12.13
2019-03-20T15:26:21.722Z,6.50
2019-03-20T15:31:35.882Z,7.43
2019-03-20T15:36:42.154Z,7.37
2019-03-20T15:41:48.561Z,11.07
2019-03-20T15:46:53.459Z,7.60
2019-03-20T15:51:58.361Z,5.60
2019-03-20T15:57:03.462Z,7.60
2019-03-20T16:02:09.302Z,11.60
2019-03-20T16:07:16.279Z,3.23
2019-03-20T16:12:21.370Z,6.67
2019-03-20T16:17:29.154Z,4.77
2019-03-20T16:22:33.701Z,7.47
2019-03-20T16:27:38.689Z,6.03
2019-03-20T16:32:43.596Z,5.90
2019-03-20T16:37:49.342Z,8.17
2019-03-20T16:42:54.045Z,5.60
2019-03-20T16:47:58.653Z,4.23
2019-03-20T16:53:07.915Z,5.27
2019-03-20T16:58:19.073Z,3.03
2019-03-20T17:03:25.657Z,6.63
2019-03-20T17:08:37.518Z,3.77
2019-03-20T17:13:40.919Z,9.83
2019-03-20T17:18:48.063Z,3.30
2019-03-20T17:23:54.284Z,6.30
2019-03-20T17:29:08.879Z,4.23
2019-03-20T17:34:09.894Z,6.03
2019-03-20T17:39:17.111Z,5.67
2019-03-20T17:44:21.826Z,17.70
2019-03-20T17:49:26.890Z,8.67
2019-03-20T17:54:33.094Z,11.70
2019-03-20T17:59:48.384Z,6.07
2019-03-20T18:04:54.269Z,5.37
2019-03-20T18:09:59.939Z,9.20
2019-03-20T18:15:05.881Z,4.10
2019-03-20T18:20:13.168Z,17.77
2019-03-20T18:25:18.441Z,38.73
2019-03-20T18:30:29.396Z,31.50
2019-03-20T18:35:35.007Z,11.87
2019-03-20T18:40:40.302Z,6.70
2019-03-20T18:45:45.222Z,4.27
2019-03-20T18:50:50.315Z,11.50
2019-03-20T18:55:55.913Z,5.80
2019-03-20T19:01:01.021Z,7.07
2019-03-20T19:06:14.293Z,9.90
2019-03-20T19:11:19.886Z,11.30
2019-03-20T19:16:25.467Z,12.73
2019-03-20T19:21:32.300Z,7.83
2019-03-20T19:26:37.734Z,6.87
2019-03-20T19:31:44.015Z,11.47
2019-03-20T19:36:51.366Z,15.77
2019-03-20T19:41:56.101Z,24.70
2019-03-20T19:47:01.224Z,45.87
2019-03-20T19:52:13.906Z,36.77
2019-03-20T19:57:18.428Z,37.17
2019-03-20T20:02:23.182Z,41.53
2019-03-20T20:07:28.115Z,28.83
2019-03-20T20:12:32.889Z,24.87
2019-03-20T20:17:38.847Z,28.43
2019-03-20T20:22:47.866Z,32.93
2019-03-20T20:27:53.716Z,53.33
2019-03-20T20:32:58.948Z,41.33
2019-03-20T20:38:04.370Z,15.00
2019-03-20T20:43:09.462Z,14.83
2019-03-20T20:48:15.853Z,13.03
2019-03-20T20:53:20.706Z,8.47
2019-03-20T20:58:25.597Z,10.93
2019-03-20T21:03:31.366Z,12.23
2019-03-20T21:08:37.422Z,11.73
2019-03-20T21:13:47.453Z,21.33
2019-03-20T21:19:35.193Z,11.93
2019-03-20T21:24:41.547Z,10.60
2019-03-20T21:30:11.799Z,9.50
2019-03-20T21:35:56.268Z,6.43
2019-03-20T21:42:00.532Z,16.40
2019-03-20T21:47:32.525Z,12.53
2019-03-20T21:52:38.152Z,7.63
2019-03-20T21:57:52.053Z,14.60
2019-03-20T22:02:57.502Z,16.50
2019-03-20T22:08:02.864Z,19.17
2019-03-20T22:13:38.840Z,25.27
2019-03-20T22:19:27.352Z,62.17
2019-03-20T22:25:28.196Z,38.27
2019-03-20T22:30:33.655Z,13.77
2019-03-20T22:36:07.764Z,24.17
2019-03-20T22:41:46.054Z,20.60
2019-03-20T22:47:19.309Z,30.97
2019-03-20T22:53:31.984Z,17.23
2019-03-20T22:58:51.288Z,48.73
2019-03-20T23:04:01.195Z,61.40
2019-03-20T23:09:11.098Z,64.13
2019-03-20T23:14:16.316Z,43.73
2019-03-20T23:19:25.084Z,26.73
2019-03-20T23:24:35.104Z,31.17
2019-03-20T23:29:40.833Z,23.80
2019-03-20T23:34:47.230Z,30.83
2019-03-20T23:39:55.591Z,14.67
2019-03-20T23:45:05.620Z,9.23
2019-03-20T23:50:10.204Z,10.23
2019-03-20T23:55:21.365Z,7.40
